sensor_id;sensor_type;location;lat;lon;timestamp;pressure;altitude;pressure_sealevel;temperature
8227;BMP180;4154;48.810;9.012;2023-05-10T00:01:29;96496.00;;;13.30
8227;BMP180;4154;48.810;9.012;2023-05-10T00:03:55;96485.00;;;13.20
8227;BMP180;4154;48.810;9.012;2023-05-10T00:06:21;96489.00;;;13.20
8227;BMP180;4154;48.810;9.012;2023-05-10T00:08:47;96487.00;;;13.10
8227;BMP180;4154;48.810;9.012;2023-05-10T00:11:13;96485.00;;;13.10
8227;BMP180;4154;48.810;9.012;2023-05-10T00:13:39;96494.00;;;13.10
8227;BMP180;4154;48.810;9.012;2023-05-10T00:16:05;96489.00;;;13.10
8227;BMP180;4154;48.810;9.012;2023-05-10T00:18:31;96492.00;;;13.00
8227;BMP180;4154;48.810;9.012;2023-05-10T00:20:57;96477.00;;;13.00
8227;BMP180;4154;48.810;9.012;2023-05-10T00:23:23;96475.00;;;12.90
8227;BMP180;4154;48.810;9.012;2023-05-10T00:25:48;96489.00;;;12.90
8227;BMP180;4154;48.810;9.012;2023-05-10T00:28:14;96487.00;;;12.90
8227;BMP180;4154;48.810;9.012;2023-05-10T00:30:40;96485.00;;;12.80
8227;BMP180;4154;48.810;9.012;2023-05-10T00:33:06;96485.00;;;12.80
8227;BMP180;4154;48.810;9.012;2023-05-10T00:35:32;96480.00;;;12.70
8227;BMP180;4154;48.810;9.012;2023-05-10T00:37:58;96492.00;;;12.70
8227;BMP180;4154;48.810;9.012;2023-05-10T00:40:23;96479.00;;;12.60
8227;BMP180;4154;48.810;9.012;2023-05-10T00:42:49;96486.00;;;12.70
8227;BMP180;4154;48.810;9.012;2023-05-10T00:45:15;96504.00;;;12.70
8227;BMP180;4154;48.810;9.012;2023-05-10T00:47:41;96497.00;;;12.70
8227;BMP180;4154;48.810;9.012;2023-05-10T00:50:08;96492.00;;;12.60
8227;BMP180;4154;48.810;9.012;2023-05-10T00:52:34;96504.00;;;12.60
8227;BMP180;4154;48.810;9.012;2023-05-10T00:55:00;96508.00;;;12.60
8227;BMP180;4154;48.810;9.012;2023-05-10T00:57:27;96510.00;;;12.50
8227;BMP180;4154;48.810;9.012;2023-05-10T00:59:53;96510.00;;;12.60
8227;BMP180;4154;48.810;9.012;2023-05-10T01:02:19;96520.00;;;12.60
8227;BMP180;4154;48.810;9.012;2023-05-10T01:04:45;96517.00;;;12.60
8227;BMP180;4154;48.810;9.012;2023-05-10T01:07:10;96505.00;;;12.60
8227;BMP180;4154;48.810;9.012;2023-05-10T01:09:36;96517.00;;;12.70
8227;BMP180;4154;48.810;9.012;2023-05-10T01:12:02;96503.00;;;12.60
8227;BMP180;4154;48.810;9.012;2023-05-10T01:14:32;96511.00;;;12.70
8227;BMP180;4154;48.810;9.012;2023-05-10T01:17:00;96509.00;;;12.60
8227;BMP180;4154;48.810;9.012;2023-05-10T01:19:28;96507.00;;;12.50
8227;BMP180;4154;48.810;9.012;2023-05-10T01:22:20;96515.00;;;12.50
8227;BMP180;4154;48.810;9.012;2023-05-10T01:27:55;96516.00;;;12.50
8227;BMP180;4154;48.810;9.012;2023-05-10T01:33:34;96520.00;;;12.50
8227;BMP180;4154;48.810;9.012;2023-05-10T01:39:19;96523.00;;;12.40
8227;BMP180;4154;48.810;9.012;2023-05-10T01:42:11;96513.00;;;12.30
8227;BMP180;4154;48.810;9.012;2023-05-10T01:44:45;96508.00;;;12.40
8227;BMP180;4154;48.810;9.012;2023-05-10T01:47:25;96516.00;;;12.40
8227;BMP180;4154;48.810;9.012;2023-05-10T01:49:56;96518.00;;;12.50
8227;BMP180;4154;48.810;9.012;2023-05-10T01:52:33;96521.00;;;12.40
8227;BMP180;4154;48.810;9.012;2023-05-10T01:55:06;96529.00;;;12.50
8227;BMP180;4154;48.810;9.012;2023-05-10T01:57:37;96524.00;;;12.50
8227;BMP180;4154;48.810;9.012;2023-05-10T02:00:07;96531.00;;;12.50
8227;BMP180;4154;48.810;9.012;2023-05-10T02:02:39;96530.00;;;12.50
8227;BMP180;4154;48.810;9.012;2023-05-10T02:05:07;96531.00;;;12.50
8227;BMP180;4154;48.810;9.012;2023-05-10T02:07:36;96534.00;;;12.60
8227;BMP180;4154;48.810;9.012;2023-05-10T02:10:06;96535.00;;;12.50
8227;BMP180;4154;48.810;9.012;2023-05-10T02:12:41;96531.00;;;12.50
8227;BMP180;4154;48.810;9.012;2023-05-10T02:15:08;96528.00;;;12.50
8227;BMP180;4154;48.810;9.012;2023-05-10T02:17:37;96530.00;;;12.50
8227;BMP180;4154;48.810;9.012;2023-05-10T02:20:07;96524.00;;;12.50
8227;BMP180;4154;48.810;9.012;2023-05-10T02:22:35;96538.00;;;12.50
8227;BMP180;4154;48.810;9.012;2023-05-10T02:25:03;96540.00;;;12.50
8227;BMP180;4154;48.810;9.012;2023-05-10T02:27:30;96535.00;;;12.50
8227;BMP180;4154;48.810;9.012;2023-05-10T02:29:57;96548.00;;;12.50
8227;BMP180;4154;48.810;9.012;2023-05-10T02:32:26;96550.00;;;12.60
8227;BMP180;4154;48.810;9.012;2023-05-10T02:34:54;96560.00;;;12.60
8227;BMP180;4154;48.810;9.012;2023-05-10T02:37:21;96558.00;;;12.60
8227;BMP180;4154;48.810;9.012;2023-05-10T02:39:50;96565.00;;;12.50
8227;BMP180;4154;48.810;9.012;2023-05-10T02:42:19;96565.00;;;12.50
8227;BMP180;4154;48.810;9.012;2023-05-10T02:44:48;96556.00;;;12.50
8227;BMP180;4154;48.810;9.012;2023-05-10T02:47:16;96559.00;;;12.50
8227;BMP180;4154;48.810;9.012;2023-05-10T02:49:43;96563.00;;;12.50
8227;BMP180;4154;48.810;9.012;2023-05-10T02:52:09;96560.00;;;12.50
8227;BMP180;4154;48.810;9.012;2023-05-10T02:54:44;96562.00;;;12.50
8227;BMP180;4154;48.810;9.012;2023-05-10T02:57:16;96566.00;;;12.50
8227;BMP180;4154;48.810;9.012;2023-05-10T02:59:45;96566.00;;;12.50
8227;BMP180;4154;48.810;9.012;2023-05-10T03:02:14;96558.00;;;12.50
8227;BMP180;4154;48.810;9.012;2023-05-10T03:04:40;96563.00;;;12.50
8227;BMP180;4154;48.810;9.012;2023-05-10T03:07:06;96567.00;;;12.50
8227;BMP180;4154;48.810;9.012;2023-05-10T03:09:32;96567.00;;;12.50
8227;BMP180;4154;48.810;9.012;2023-05-10T03:17:59;96571.00;;;12.50
8227;BMP180;4154;48.810;9.012;2023-05-10T03:20:39;96569.00;;;12.50
8227;BMP180;4154;48.810;9.012;2023-05-10T03:23:58;96573.00;;;12.50
8227;BMP180;4154;48.810;9.012;2023-05-10T03:26:28;96573.00;;;12.50
8227;BMP180;4154;48.810;9.012;2023-05-10T03:28:56;96578.00;;;12.50
8227;BMP180;4154;48.810;9.012;2023-05-10T03:31:24;96583.00;;;12.50
8227;BMP180;4154;48.810;9.012;2023-05-10T03:33:52;96582.00;;;12.50
8227;BMP180;4154;48.810;9.012;2023-05-10T03:36:18;96573.00;;;12.50
8227;BMP180;4154;48.810;9.012;2023-05-10T03:38:44;96578.00;;;12.50
8227;BMP180;4154;48.810;9.012;2023-05-10T03:41:10;96575.00;;;12.50
8227;BMP180;4154;48.810;9.012;2023-05-10T03:43:37;96582.00;;;12.50
8227;BMP180;4154;48.810;9.012;2023-05-10T03:46:04;96581.00;;;12.50
8227;BMP180;4154;48.810;9.012;2023-05-10T03:48:30;96580.00;;;12.50
8227;BMP180;4154;48.810;9.012;2023-05-10T03:50:56;96587.00;;;12.50
8227;BMP180;4154;48.810;9.012;2023-05-10T03:53:21;96585.00;;;12.50
8227;BMP180;4154;48.810;9.012;2023-05-10T03:55:48;96593.00;;;12.50
8227;BMP180;4154;48.810;9.012;2023-05-10T03:58:14;96603.00;;;12.50
8227;BMP180;4154;48.810;9.012;2023-05-10T04:00:40;96584.00;;;12.50
8227;BMP180;4154;48.810;9.012;2023-05-10T04:03:11;96595.00;;;12.50
8227;BMP180;4154;48.810;9.012;2023-05-10T04:05:37;96599.00;;;12.50
8227;BMP180;4154;48.810;9.012;2023-05-10T04:08:04;96601.00;;;12.50
8227;BMP180;4154;48.810;9.012;2023-05-10T04:10:30;96597.00;;;12.50
8227;BMP180;4154;48.810;9.012;2023-05-10T04:12:56;96591.00;;;12.50
8227;BMP180;4154;48.810;9.012;2023-05-10T04:15:22;96589.00;;;12.50
8227;BMP180;4154;48.810;9.012;2023-05-10T04:17:48;96597.00;;;12.50
8227;BMP180;4154;48.810;9.012;2023-05-10T04:20:14;96592.00;;;12.50
8227;BMP180;4154;48.810;9.012;2023-05-10T04:22:40;96600.00;;;12.60
8227;BMP180;4154;48.810;9.012;2023-05-10T04:25:06;96594.00;;;12.60
8227;BMP180;4154;48.810;9.012;2023-05-10T04:27:33;96597.00;;;12.60
8227;BMP180;4154;48.810;9.012;2023-05-10T04:29:59;96599.00;;;12.60
8227;BMP180;4154;48.810;9.012;2023-05-10T04:32:24;96598.00;;;12.60
8227;BMP180;4154;48.810;9.012;2023-05-10T04:34:50;96597.00;;;12.60
8227;BMP180;4154;48.810;9.012;2023-05-10T04:37:19;96606.00;;;12.60
8227;BMP180;4154;48.810;9.012;2023-05-10T04:39:46;96600.00;;;12.60
8227;BMP180;4154;48.810;9.012;2023-05-10T04:42:12;96595.00;;;12.60
8227;BMP180;4154;48.810;9.012;2023-05-10T04:44:40;96607.00;;;12.50
8227;BMP180;4154;48.810;9.012;2023-05-10T04:47:06;96603.00;;;12.60
8227;BMP180;4154;48.810;9.012;2023-05-10T04:49:32;96606.00;;;12.60
8227;BMP180;4154;48.810;9.012;2023-05-10T04:51:58;96611.00;;;12.60
8227;BMP180;4154;48.810;9.012;2023-05-10T04:54:24;96611.00;;;12.60
8227;BMP180;4154;48.810;9.012;2023-05-10T04:56:50;96608.00;;;12.60
8227;BMP180;4154;48.810;9.012;2023-05-10T04:59:16;96611.00;;;12.60
8227;BMP180;4154;48.810;9.012;2023-05-10T05:01:41;96615.00;;;12.60
8227;BMP180;4154;48.810;9.012;2023-05-10T05:04:07;96612.00;;;12.60
8227;BMP180;4154;48.810;9.012;2023-05-10T05:06:33;96616.00;;;12.60
8227;BMP180;4154;48.810;9.012;2023-05-10T05:08:59;96617.00;;;12.70
8227;BMP180;4154;48.810;9.012;2023-05-10T05:11:25;96611.00;;;12.70
8227;BMP180;4154;48.810;9.012;2023-05-10T05:13:51;96622.00;;;12.70
8227;BMP180;4154;48.810;9.012;2023-05-10T05:16:17;96619.00;;;12.70
8227;BMP180;4154;48.810;9.012;2023-05-10T05:18:43;96625.00;;;12.70
8227;BMP180;4154;48.810;9.012;2023-05-10T05:21:19;96623.00;;;12.80
8227;BMP180;4154;48.810;9.012;2023-05-10T05:23:45;96625.00;;;12.80
8227;BMP180;4154;48.810;9.012;2023-05-10T05:26:11;96635.00;;;12.80
8227;BMP180;4154;48.810;9.012;2023-05-10T05:28:37;96635.00;;;12.80
8227;BMP180;4154;48.810;9.012;2023-05-10T05:31:05;96642.00;;;12.80
8227;BMP180;4154;48.810;9.012;2023-05-10T05:33:31;96641.00;;;12.90
8227;BMP180;4154;48.810;9.012;2023-05-10T05:36:00;96643.00;;;12.90
8227;BMP180;4154;48.810;9.012;2023-05-10T05:38:26;96640.00;;;12.90
8227;BMP180;4154;48.810;9.012;2023-05-10T05:40:52;96646.00;;;12.90
8227;BMP180;4154;48.810;9.012;2023-05-10T05:43:18;96644.00;;;12.90
8227;BMP180;4154;48.810;9.012;2023-05-10T05:45:43;96640.00;;;12.90
8227;BMP180;4154;48.810;9.012;2023-05-10T05:48:09;96637.00;;;13.00
8227;BMP180;4154;48.810;9.012;2023-05-10T05:50:35;96639.00;;;13.00
8227;BMP180;4154;48.810;9.012;2023-05-10T05:53:01;96646.00;;;13.00
8227;BMP180;4154;48.810;9.012;2023-05-10T05:55:27;96646.00;;;13.00
8227;BMP180;4154;48.810;9.012;2023-05-10T05:57:53;96644.00;;;13.00
8227;BMP180;4154;48.810;9.012;2023-05-10T06:00:19;96652.00;;;13.00
8227;BMP180;4154;48.810;9.012;2023-05-10T06:02:45;96652.00;;;13.10
8227;BMP180;4154;48.810;9.012;2023-05-10T06:05:11;96657.00;;;13.10
8227;BMP180;4154;48.810;9.012;2023-05-10T06:07:37;96659.00;;;13.10
8227;BMP180;4154;48.810;9.012;2023-05-10T06:10:03;96660.00;;;13.10
8227;BMP180;4154;48.810;9.012;2023-05-10T06:12:29;96653.00;;;13.10
8227;BMP180;4154;48.810;9.012;2023-05-10T06:14:55;96673.00;;;13.10
8227;BMP180;4154;48.810;9.012;2023-05-10T06:17:20;96672.00;;;13.20
8227;BMP180;4154;48.810;9.012;2023-05-10T06:19:47;96670.00;;;13.20
8227;BMP180;4154;48.810;9.012;2023-05-10T06:22:13;96670.00;;;13.20
8227;BMP180;4154;48.810;9.012;2023-05-10T06:24:38;96685.00;;;13.10
8227;BMP180;4154;48.810;9.012;2023-05-10T06:27:05;96672.00;;;13.20
8227;BMP180;4154;48.810;9.012;2023-05-10T06:29:31;96670.00;;;13.20
8227;BMP180;4154;48.810;9.012;2023-05-10T06:31:57;96679.00;;;13.30
8227;BMP180;4154;48.810;9.012;2023-05-10T06:34:23;96678.00;;;13.30
8227;BMP180;4154;48.810;9.012;2023-05-10T06:36:49;96675.00;;;13.30
8227;BMP180;4154;48.810;9.012;2023-05-10T06:39:14;96671.00;;;13.30
8227;BMP180;4154;48.810;9.012;2023-05-10T06:41:40;96691.00;;;13.30
8227;BMP180;4154;48.810;9.012;2023-05-10T06:44:06;96693.00;;;13.30
8227;BMP180;4154;48.810;9.012;2023-05-10T06:46:31;96687.00;;;13.40
8227;BMP180;4154;48.810;9.012;2023-05-10T06:48:57;96676.00;;;13.40
8227;BMP180;4154;48.810;9.012;2023-05-10T06:51:23;96683.00;;;13.40
8227;BMP180;4154;48.810;9.012;2023-05-10T06:53:49;96685.00;;;13.50
8227;BMP180;4154;48.810;9.012;2023-05-10T06:56:14;96680.00;;;13.50
8227;BMP180;4154;48.810;9.012;2023-05-10T06:58:40;96679.00;;;13.50
8227;BMP180;4154;48.810;9.012;2023-05-10T07:01:09;96684.00;;;13.60
8227;BMP180;4154;48.810;9.012;2023-05-10T07:03:35;96688.00;;;13.60
8227;BMP180;4154;48.810;9.012;2023-05-10T07:06:02;96686.00;;;13.60
8227;BMP180;4154;48.810;9.012;2023-05-10T07:08:35;96688.00;;;13.60
8227;BMP180;4154;48.810;9.012;2023-05-10T07:11:06;96672.00;;;13.60
8227;BMP180;4154;48.810;9.012;2023-05-10T07:13:36;96681.00;;;13.70
8227;BMP180;4154;48.810;9.012;2023-05-10T07:16:02;96684.00;;;13.70
8227;BMP180;4154;48.810;9.012;2023-05-10T07:18:28;96694.00;;;13.80
8227;BMP180;4154;48.810;9.012;2023-05-10T07:20:54;96697.00;;;13.80
8227;BMP180;4154;48.810;9.012;2023-05-10T07:23:20;96701.00;;;13.90
8227;BMP180;4154;48.810;9.012;2023-05-10T07:25:48;96694.00;;;13.90
8227;BMP180;4154;48.810;9.012;2023-05-10T07:28:16;96698.00;;;14.00
8227;BMP180;4154;48.810;9.012;2023-05-10T07:30:43;96697.00;;;14.00
8227;BMP180;4154;48.810;9.012;2023-05-10T07:33:10;96699.00;;;14.00
8227;BMP180;4154;48.810;9.012;2023-05-10T07:35:37;96696.00;;;14.00
8227;BMP180;4154;48.810;9.012;2023-05-10T07:38:03;96695.00;;;14.00
8227;BMP180;4154;48.810;9.012;2023-05-10T07:40:29;96694.00;;;14.10
8227;BMP180;4154;48.810;9.012;2023-05-10T07:42:55;96695.00;;;14.00
8227;BMP180;4154;48.810;9.012;2023-05-10T07:45:22;96695.00;;;14.00
8227;BMP180;4154;48.810;9.012;2023-05-10T07:47:49;96703.00;;;14.10
8227;BMP180;4154;48.810;9.012;2023-05-10T07:50:15;96698.00;;;14.10
8227;BMP180;4154;48.810;9.012;2023-05-10T07:52:41;96704.00;;;14.10
8227;BMP180;4154;48.810;9.012;2023-05-10T07:55:08;96711.00;;;14.10
8227;BMP180;4154;48.810;9.012;2023-05-10T07:57:41;96701.00;;;14.20
8227;BMP180;4154;48.810;9.012;2023-05-10T08:00:07;96695.00;;;14.10
8227;BMP180;4154;48.810;9.012;2023-05-10T08:02:35;96711.00;;;14.20
8227;BMP180;4154;48.810;9.012;2023-05-10T08:05:01;96704.00;;;14.10
8227;BMP180;4154;48.810;9.012;2023-05-10T08:07:27;96698.00;;;14.00
8227;BMP180;4154;48.810;9.012;2023-05-10T08:09:53;96707.00;;;14.00
8227;BMP180;4154;48.810;9.012;2023-05-10T08:12:18;96708.00;;;14.10
8227;BMP180;4154;48.810;9.012;2023-05-10T08:14:44;96697.00;;;14.10
8227;BMP180;4154;48.810;9.012;2023-05-10T08:17:10;96705.00;;;14.10
8227;BMP180;4154;48.810;9.012;2023-05-10T08:19:36;96712.00;;;14.20
8227;BMP180;4154;48.810;9.012;2023-05-10T08:22:02;96709.00;;;14.10
8227;BMP180;4154;48.810;9.012;2023-05-10T08:24:27;96710.00;;;14.10
8227;BMP180;4154;48.810;9.012;2023-05-10T08:26:53;96714.00;;;14.10
8227;BMP180;4154;48.810;9.012;2023-05-10T08:29:19;96720.00;;;14.20
8227;BMP180;4154;48.810;9.012;2023-05-10T08:31:45;96714.00;;;14.20
8227;BMP180;4154;48.810;9.012;2023-05-10T08:34:11;96720.00;;;14.20
8227;BMP180;4154;48.810;9.012;2023-05-10T08:36:37;96712.00;;;14.20
8227;BMP180;4154;48.810;9.012;2023-05-10T08:39:03;96703.00;;;14.30
8227;BMP180;4154;48.810;9.012;2023-05-10T08:41:33;96715.00;;;14.20
8227;BMP180;4154;48.810;9.012;2023-05-10T08:44:03;96721.00;;;14.30
8227;BMP180;4154;48.810;9.012;2023-05-10T08:46:33;96719.00;;;14.40
8227;BMP180;4154;48.810;9.012;2023-05-10T08:49:04;96731.00;;;14.50
8227;BMP180;4154;48.810;9.012;2023-05-10T08:51:36;96731.00;;;14.60
8227;BMP180;4154;48.810;9.012;2023-05-10T08:54:06;96726.00;;;14.50
8227;BMP180;4154;48.810;9.012;2023-05-10T08:56:31;96728.00;;;14.60
8227;BMP180;4154;48.810;9.012;2023-05-10T08:58:57;96727.00;;;14.60
8227;BMP180;4154;48.810;9.012;2023-05-10T09:01:25;96723.00;;;14.70
8227;BMP180;4154;48.810;9.012;2023-05-10T09:03:52;96732.00;;;14.60
8227;BMP180;4154;48.810;9.012;2023-05-10T09:06:18;96734.00;;;14.70
8227;BMP180;4154;48.810;9.012;2023-05-10T09:08:45;96744.00;;;14.80
8227;BMP180;4154;48.810;9.012;2023-05-10T09:11:12;96730.00;;;14.80
8227;BMP180;4154;48.810;9.012;2023-05-10T09:13:38;96745.00;;;14.80
8227;BMP180;4154;48.810;9.012;2023-05-10T09:16:04;96735.00;;;14.80
8227;BMP180;4154;48.810;9.012;2023-05-10T09:18:30;96740.00;;;14.90
8227;BMP180;4154;48.810;9.012;2023-05-10T09:20:56;96734.00;;;14.80
8227;BMP180;4154;48.810;9.012;2023-05-10T09:23:22;96747.00;;;14.80
8227;BMP180;4154;48.810;9.012;2023-05-10T09:26:03;96750.00;;;14.70
8227;BMP180;4154;48.810;9.012;2023-05-10T09:28:34;96749.00;;;14.70
8227;BMP180;4154;48.810;9.012;2023-05-10T09:31:15;96742.00;;;14.70
8227;BMP180;4154;48.810;9.012;2023-05-10T09:33:48;96752.00;;;14.80
8227;BMP180;4154;48.810;9.012;2023-05-10T09:36:15;96754.00;;;14.80
8227;BMP180;4154;48.810;9.012;2023-05-10T09:38:52;96756.00;;;14.60
8227;BMP180;4154;48.810;9.012;2023-05-10T09:41:25;96767.00;;;14.70
8227;BMP180;4154;48.810;9.012;2023-05-10T09:43:56;96771.00;;;14.60
8227;BMP180;4154;48.810;9.012;2023-05-10T09:46:22;96758.00;;;14.50
8227;BMP180;4154;48.810;9.012;2023-05-10T09:48:48;96762.00;;;14.60
8227;BMP180;4154;48.810;9.012;2023-05-10T09:51:22;96766.00;;;14.70
8227;BMP180;4154;48.810;9.012;2023-05-10T09:53:48;96762.00;;;14.60
8227;BMP180;4154;48.810;9.012;2023-05-10T09:56:37;96762.00;;;14.80
8227;BMP180;4154;48.810;9.012;2023-05-10T09:59:09;96758.00;;;14.80
8227;BMP180;4154;48.810;9.012;2023-05-10T10:01:35;96758.00;;;14.80
8227;BMP180;4154;48.810;9.012;2023-05-10T10:04:09;96762.00;;;14.90
8227;BMP180;4154;48.810;9.012;2023-05-10T10:06:39;96764.00;;;15.00
8227;BMP180;4154;48.810;9.012;2023-05-10T10:09:06;96765.00;;;15.00
8227;BMP180;4154;48.810;9.012;2023-05-10T10:11:36;96761.00;;;15.00
8227;BMP180;4154;48.810;9.012;2023-05-10T10:14:02;96767.00;;;15.10
8227;BMP180;4154;48.810;9.012;2023-05-10T10:16:30;96760.00;;;15.30
8227;BMP180;4154;48.810;9.012;2023-05-10T10:18:56;96768.00;;;15.40
8227;BMP180;4154;48.810;9.012;2023-05-10T10:21:23;96768.00;;;15.40
8227;BMP180;4154;48.810;9.012;2023-05-10T10:23:49;96771.00;;;15.30
8227;BMP180;4154;48.810;9.012;2023-05-10T10:26:17;96767.00;;;15.20
8227;BMP180;4154;48.810;9.012;2023-05-10T10:32:05;96775.00;;;15.10
8227;BMP180;4154;48.810;9.012;2023-05-10T10:34:33;96776.00;;;15.20
8227;BMP180;4154;48.810;9.012;2023-05-10T10:37:05;96772.00;;;15.40
8227;BMP180;4154;48.810;9.012;2023-05-10T10:39:31;96767.00;;;15.30
8227;BMP180;4154;48.810;9.012;2023-05-10T10:41:58;96776.00;;;15.30
8227;BMP180;4154;48.810;9.012;2023-05-10T10:50:06;96775.00;;;14.90
8227;BMP180;4154;48.810;9.012;2023-05-10T10:52:37;96775.00;;;14.90
8227;BMP180;4154;48.810;9.012;2023-05-10T10:55:20;96775.00;;;14.70
8227;BMP180;4154;48.810;9.012;2023-05-10T10:57:53;96776.00;;;14.70
8227;BMP180;4154;48.810;9.012;2023-05-10T11:00:31;96785.00;;;14.90
8227;BMP180;4154;48.810;9.012;2023-05-10T11:03:06;96789.00;;;14.90
8227;BMP180;4154;48.810;9.012;2023-05-10T11:05:40;96790.00;;;15.00
8227;BMP180;4154;48.810;9.012;2023-05-10T11:08:28;96783.00;;;15.00
8227;BMP180;4154;48.810;9.012;2023-05-10T11:13:39;96781.00;;;15.10
8227;BMP180;4154;48.810;9.012;2023-05-10T11:16:20;96779.00;;;15.10
8227;BMP180;4154;48.810;9.012;2023-05-10T11:19:08;96778.00;;;15.20
8227;BMP180;4154;48.810;9.012;2023-05-10T11:21:49;96782.00;;;15.20
8227;BMP180;4154;48.810;9.012;2023-05-10T11:24:19;96789.00;;;15.20
8227;BMP180;4154;48.810;9.012;2023-05-10T11:26:46;96791.00;;;15.20
8227;BMP180;4154;48.810;9.012;2023-05-10T11:29:15;96789.00;;;15.20
8227;BMP180;4154;48.810;9.012;2023-05-10T11:31:45;96788.00;;;15.00
8227;BMP180;4154;48.810;9.012;2023-05-10T11:34:31;96794.00;;;15.10
8227;BMP180;4154;48.810;9.012;2023-05-10T11:36:59;96784.00;;;15.10
8227;BMP180;4154;48.810;9.012;2023-05-10T11:39:30;96796.00;;;15.00
8227;BMP180;4154;48.810;9.012;2023-05-10T11:41:57;96798.00;;;14.90
8227;BMP180;4154;48.810;9.012;2023-05-10T11:44:23;96796.00;;;14.90
8227;BMP180;4154;48.810;9.012;2023-05-10T11:46:49;96811.00;;;14.90
8227;BMP180;4154;48.810;9.012;2023-05-10T11:49:15;96798.00;;;14.80
8227;BMP180;4154;48.810;9.012;2023-05-10T11:51:41;96789.00;;;14.80
8227;BMP180;4154;48.810;9.012;2023-05-10T11:54:10;96794.00;;;14.80
8227;BMP180;4154;48.810;9.012;2023-05-10T11:56:40;96800.00;;;14.90
8227;BMP180;4154;48.810;9.012;2023-05-10T11:59:06;96798.00;;;15.00
8227;BMP180;4154;48.810;9.012;2023-05-10T12:01:33;96801.00;;;15.00
8227;BMP180;4154;48.810;9.012;2023-05-10T12:04:00;96804.00;;;15.10
8227;BMP180;4154;48.810;9.012;2023-05-10T12:06:32;96802.00;;;15.00
8227;BMP180;4154;48.810;9.012;2023-05-10T12:09:01;96814.00;;;15.00
8227;BMP180;4154;48.810;9.012;2023-05-10T12:11:30;96810.00;;;15.10
8227;BMP180;4154;48.810;9.012;2023-05-10T12:13:56;96812.00;;;15.20
8227;BMP180;4154;48.810;9.012;2023-05-10T12:16:31;96821.00;;;15.50
8227;BMP180;4154;48.810;9.012;2023-05-10T12:18:59;96829.00;;;15.50
8227;BMP180;4154;48.810;9.012;2023-05-10T12:21:28;96812.00;;;15.50
8227;BMP180;4154;48.810;9.012;2023-05-10T12:23:58;96823.00;;;15.50
8227;BMP180;4154;48.810;9.012;2023-05-10T12:26:25;96816.00;;;15.50
8227;BMP180;4154;48.810;9.012;2023-05-10T12:29:12;96824.00;;;15.70
8227;BMP180;4154;48.810;9.012;2023-05-10T12:31:57;96810.00;;;15.50
8227;BMP180;4154;48.810;9.012;2023-05-10T12:34:31;96818.00;;;15.60
8227;BMP180;4154;48.810;9.012;2023-05-10T12:36:57;96812.00;;;15.60
8227;BMP180;4154;48.810;9.012;2023-05-10T12:39:23;96818.00;;;15.60
8227;BMP180;4154;48.810;9.012;2023-05-10T12:41:49;96821.00;;;15.50
8227;BMP180;4154;48.810;9.012;2023-05-10T12:44:15;96816.00;;;15.60
8227;BMP180;4154;48.810;9.012;2023-05-10T12:46:41;96814.00;;;15.60
8227;BMP180;4154;48.810;9.012;2023-05-10T12:49:07;96813.00;;;15.60
8227;BMP180;4154;48.810;9.012;2023-05-10T12:51:33;96812.00;;;15.60
8227;BMP180;4154;48.810;9.012;2023-05-10T12:53:58;96814.00;;;15.50
8227;BMP180;4154;48.810;9.012;2023-05-10T12:56:24;96815.00;;;15.60
8227;BMP180;4154;48.810;9.012;2023-05-10T12:58:50;96819.00;;;15.60
8227;BMP180;4154;48.810;9.012;2023-05-10T13:01:16;96816.00;;;15.60
8227;BMP180;4154;48.810;9.012;2023-05-10T13:03:42;96821.00;;;15.80
8227;BMP180;4154;48.810;9.012;2023-05-10T13:06:08;96824.00;;;15.80
8227;BMP180;4154;48.810;9.012;2023-05-10T13:08:34;96809.00;;;15.60
8227;BMP180;4154;48.810;9.012;2023-05-10T13:11:01;96813.00;;;15.70
8227;BMP180;4154;48.810;9.012;2023-05-10T13:13:28;96821.00;;;15.70
8227;BMP180;4154;48.810;9.012;2023-05-10T13:15:54;96819.00;;;15.70
8227;BMP180;4154;48.810;9.012;2023-05-10T13:18:20;96819.00;;;15.80
8227;BMP180;4154;48.810;9.012;2023-05-10T13:20:46;96814.00;;;15.80
8227;BMP180;4154;48.810;9.012;2023-05-10T13:23:12;96811.00;;;15.80
8227;BMP180;4154;48.810;9.012;2023-05-10T13:25:38;96811.00;;;15.90
8227;BMP180;4154;48.810;9.012;2023-05-10T13:28:04;96814.00;;;15.70
8227;BMP180;4154;48.810;9.012;2023-05-10T13:30:30;96818.00;;;15.80
8227;BMP180;4154;48.810;9.012;2023-05-10T13:32:56;96820.00;;;15.80
8227;BMP180;4154;48.810;9.012;2023-05-10T13:35:22;96818.00;;;15.90
8227;BMP180;4154;48.810;9.012;2023-05-10T13:37:48;96813.00;;;15.90
8227;BMP180;4154;48.810;9.012;2023-05-10T13:40:14;96809.00;;;16.00
8227;BMP180;4154;48.810;9.012;2023-05-10T13:42:41;96809.00;;;16.00
8227;BMP180;4154;48.810;9.012;2023-05-10T13:45:07;96816.00;;;16.10
8227;BMP180;4154;48.810;9.012;2023-05-10T13:47:34;96813.00;;;16.10
8227;BMP180;4154;48.810;9.012;2023-05-10T13:50:00;96814.00;;;16.00
8227;BMP180;4154;48.810;9.012;2023-05-10T13:52:27;96804.00;;;16.10
8227;BMP180;4154;48.810;9.012;2023-05-10T13:54:53;96804.00;;;16.20
8227;BMP180;4154;48.810;9.012;2023-05-10T13:57:21;96803.00;;;16.30
8227;BMP180;4154;48.810;9.012;2023-05-10T13:59:46;96801.00;;;16.20
8227;BMP180;4154;48.810;9.012;2023-05-10T14:02:12;96799.00;;;16.30
8227;BMP180;4154;48.810;9.012;2023-05-10T14:04:39;96803.00;;;16.30
8227;BMP180;4154;48.810;9.012;2023-05-10T14:07:05;96797.00;;;16.30
8227;BMP180;4154;48.810;9.012;2023-05-10T14:09:31;96806.00;;;16.20
8227;BMP180;4154;48.810;9.012;2023-05-10T14:11:57;96799.00;;;16.00
8227;BMP180;4154;48.810;9.012;2023-05-10T14:14:23;96798.00;;;16.10
8227;BMP180;4154;48.810;9.012;2023-05-10T14:16:49;96801.00;;;15.90
8227;BMP180;4154;48.810;9.012;2023-05-10T14:19:14;96795.00;;;16.00
8227;BMP180;4154;48.810;9.012;2023-05-10T14:21:40;96800.00;;;16.00
8227;BMP180;4154;48.810;9.012;2023-05-10T14:24:06;96804.00;;;16.10
8227;BMP180;4154;48.810;9.012;2023-05-10T14:26:32;96799.00;;;16.20
8227;BMP180;4154;48.810;9.012;2023-05-10T14:29:00;96803.00;;;16.10
8227;BMP180;4154;48.810;9.012;2023-05-10T14:31:25;96800.00;;;16.20
8227;BMP180;4154;48.810;9.012;2023-05-10T14:33:52;96802.00;;;16.20
8227;BMP180;4154;48.810;9.012;2023-05-10T14:36:18;96806.00;;;16.30
8227;BMP180;4154;48.810;9.012;2023-05-10T14:38:44;96786.00;;;16.20
8227;BMP180;4154;48.810;9.012;2023-05-10T14:41:09;96800.00;;;16.20
8227;BMP180;4154;48.810;9.012;2023-05-10T14:43:39;96795.00;;;16.20
8227;BMP180;4154;48.810;9.012;2023-05-10T14:46:05;96792.00;;;16.10
8227;BMP180;4154;48.810;9.012;2023-05-10T14:48:30;96793.00;;;16.10
8227;BMP180;4154;48.810;9.012;2023-05-10T14:50:56;96795.00;;;16.10
8227;BMP180;4154;48.810;9.012;2023-05-10T14:53:22;96787.00;;;15.90
8227;BMP180;4154;48.810;9.012;2023-05-10T14:55:48;96799.00;;;16.10
8227;BMP180;4154;48.810;9.012;2023-05-10T14:58:14;96797.00;;;16.10
8227;BMP180;4154;48.810;9.012;2023-05-10T15:00:40;96795.00;;;16.10
8227;BMP180;4154;48.810;9.012;2023-05-10T15:03:06;96790.00;;;16.10
8227;BMP180;4154;48.810;9.012;2023-05-10T15:05:32;96790.00;;;16.10